sensor_id;sensor_type;location;lat;lon;timestamp;pressure;altitude;pressure_sealevel;temperature;humidity
73860;BME280;62197;51.632;13.700;2024-03-07T00:02:10;101267.25;;;4.58;100.00
73860;BME280;62197;51.632;13.700;2024-03-07T00:04:35;101280.34;;;4.56;100.00
73860;BME280;62197;51.632;13.700;2024-03-07T00:07:02;101275.00;;;4.59;100.00
73860;BME280;62197;51.632;13.700;2024-03-07T00:09:31;101276.81;;;4.57;100.00
73860;BME280;62197;51.632;13.700;2024-03-07T00:11:57;101274.16;;;4.59;100.00
73860;BME280;62197;51.632;13.700;2024-03-07T00:14:22;101270.56;;;4.61;100.00
73860;BME280;62197;51.632;13.700;2024-03-07T00:16:52;101272.31;;;4.61;100.00
73860;BME280;62197;51.632;13.700;2024-03-07T00:19:18;101278.09;;;4.68;100.00
73860;BME280;62197;51.632;13.700;2024-03-07T00:21:43;101271.50;;;4.78;100.00
73860;BME280;62197;51.632;13.700;2024-03-07T00:24:08;101274.38;;;4.72;100.00
73860;BME280;62197;51.632;13.700;2024-03-07T00:26:34;101269.81;;;4.77;100.00
73860;BME280;62197;51.632;13.700;2024-03-07T00:28:59;101272.56;;;4.74;100.00
73860;BME280;62197;51.632;13.700;2024-03-07T00:31:24;101270.66;;;4.77;100.00
73860;BME280;62197;51.632;13.700;2024-03-07T00:33:49;101269.94;;;4.74;100.00
73860;BME280;62197;51.632;13.700;2024-03-07T00:36:15;101267.47;;;4.71;100.00
73860;BME280;62197;51.632;13.700;2024-03-07T00:38:40;101267.19;;;4.77;100.00
73860;BME280;62197;51.632;13.700;2024-03-07T00:41:07;101268.78;;;4.98;100.00
73860;BME280;62197;51.632;13.700;2024-03-07T00:43:32;101265.69;;;4.90;100.00
73860;BME280;62197;51.632;13.700;2024-03-07T00:45:57;101266.00;;;4.84;100.00
73860;BME280;62197;51.632;13.700;2024-03-07T00:48:22;101270.44;;;4.82;100.00
73860;BME280;62197;51.632;13.700;2024-03-07T00:50:50;101266.06;;;4.82;100.00
73860;BME280;62197;51.632;13.700;2024-03-07T00:53:15;101267.69;;;4.85;100.00
73860;BME280;62197;51.632;13.700;2024-03-07T00:55:40;101255.84;;;4.78;100.00
73860;BME280;62197;51.632;13.700;2024-03-07T00:58:06;101255.22;;;4.73;100.00
73860;BME280;62197;51.632;13.700;2024-03-07T01:00:31;101252.97;;;4.84;100.00
73860;BME280;62197;51.632;13.700;2024-03-07T01:02:56;101256.41;;;4.84;100.00
73860;BME280;62197;51.632;13.700;2024-03-07T01:05:22;101256.78;;;4.77;100.00
73860;BME280;62197;51.632;13.700;2024-03-07T01:07:47;101256.28;;;4.69;100.00
73860;BME280;62197;51.632;13.700;2024-03-07T01:10:14;101252.31;;;4.61;100.00
73860;BME280;62197;51.632;13.700;2024-03-07T01:12:39;101254.16;;;4.59;100.00
73860;BME280;62197;51.632;13.700;2024-03-07T01:15:05;101260.00;;;4.64;100.00
73860;BME280;62197;51.632;13.700;2024-03-07T01:17:31;101248.94;;;4.59;100.00
73860;BME280;62197;51.632;13.700;2024-03-07T01:19:57;101250.34;;;4.67;100.00
73860;BME280;62197;51.632;13.700;2024-03-07T01:22:23;101257.81;;;4.55;100.00
73860;BME280;62197;51.632;13.700;2024-03-07T01:24:48;101257.09;;;4.52;100.00
73860;BME280;62197;51.632;13.700;2024-03-07T01:27:13;101253.28;;;4.59;100.00
73860;BME280;62197;51.632;13.700;2024-03-07T01:29:39;101244.00;;;4.53;100.00
73860;BME280;62197;51.632;13.700;2024-03-07T01:32:06;101245.91;;;4.50;100.00
73860;BME280;62197;51.632;13.700;2024-03-07T01:34:32;101251.56;;;4.77;100.00
73860;BME280;62197;51.632;13.700;2024-03-07T01:36:57;101255.53;;;4.67;100.00
73860;BME280;62197;51.632;13.700;2024-03-07T01:39:23;101250.84;;;4.56;100.00
73860;BME280;62197;51.632;13.700;2024-03-07T01:41:48;101256.97;;;4.55;100.00
73860;BME280;62197;51.632;13.700;2024-03-07T01:44:13;101248.50;;;4.50;100.00
73860;BME280;62197;51.632;13.700;2024-03-07T01:46:39;101245.91;;;4.50;100.00
73860;BME280;62197;51.632;13.700;2024-03-07T01:49:06;101255.56;;;4.48;100.00
73860;BME280;62197;51.632;13.700;2024-03-07T01:51:33;101249.63;;;4.44;100.00
73860;BME280;62197;51.632;13.700;2024-03-07T01:53:58;101253.03;;;4.46;100.00
73860;BME280;62197;51.632;13.700;2024-03-07T01:56:24;101254.84;;;4.44;100.00
73860;BME280;62197;51.632;13.700;2024-03-07T01:58:50;101255.63;;;4.46;100.00
73860;BME280;62197;51.632;13.700;2024-03-07T02:01:17;101248.66;;;4.47;100.00
73860;BME280;62197;51.632;13.700;2024-03-07T02:03:42;101253.31;;;4.40;100.00
73860;BME280;62197;51.632;13.700;2024-03-07T02:06:08;101246.34;;;4.41;100.00
73860;BME280;62197;51.632;13.700;2024-03-07T02:08:33;101243.88;;;4.38;100.00
73860;BME280;62197;51.632;13.700;2024-03-07T02:11:00;101248.22;;;4.37;100.00
73860;BME280;62197;51.632;13.700;2024-03-07T02:13:26;101249.09;;;4.38;100.00
73860;BME280;62197;51.632;13.700;2024-03-07T02:15:52;101244.84;;;4.35;100.00
73860;BME280;62197;51.632;13.700;2024-03-07T02:18:19;101242.09;;;4.38;100.00
73860;BME280;62197;51.632;13.700;2024-03-07T02:20:45;101240.63;;;4.32;100.00
73860;BME280;62197;51.632;13.700;2024-03-07T02:23:13;101243.16;;;4.34;100.00
73860;BME280;62197;51.632;13.700;2024-03-07T02:25:40;101245.00;;;4.32;100.00
73860;BME280;62197;51.632;13.700;2024-03-07T02:28:05;101238.94;;;4.31;100.00
73860;BME280;62197;51.632;13.700;2024-03-07T02:30:31;101240.84;;;4.28;100.00
73860;BME280;62197;51.632;13.700;2024-03-07T02:32:59;101241.47;;;4.33;100.00
73860;BME280;62197;51.632;13.700;2024-03-07T02:35:34;101240.84;;;4.28;100.00
73860;BME280;62197;51.632;13.700;2024-03-07T02:38:01;101243.72;;;4.22;100.00
73860;BME280;62197;51.632;13.700;2024-03-07T02:40:27;101240.41;;;4.18;100.00
73860;BME280;62197;51.632;13.700;2024-03-07T02:42:52;101239.63;;;4.16;100.00
73860;BME280;62197;51.632;13.700;2024-03-07T02:45:17;101236.22;;;4.16;100.00
73860;BME280;62197;51.632;13.700;2024-03-07T02:47:43;101240.28;;;4.21;100.00
73860;BME280;62197;51.632;13.700;2024-03-07T02:50:10;101233.44;;;4.19;100.00
73860;BME280;62197;51.632;13.700;2024-03-07T02:52:35;101232.97;;;4.11;100.00
73860;BME280;62197;51.632;13.700;2024-03-07T02:55:01;101239.03;;;4.11;100.00
73860;BME280;62197;51.632;13.700;2024-03-07T02:57:28;101234.03;;;4.07;100.00
73860;BME280;62197;51.632;13.700;2024-03-07T02:59:53;101233.25;;;4.05;100.00
73860;BME280;62197;51.632;13.700;2024-03-07T03:02:18;101226.13;;;3.89;100.00
73860;BME280;62197;51.632;13.700;2024-03-07T03:04:44;101227.56;;;3.76;100.00
73860;BME280;62197;51.632;13.700;2024-03-07T03:07:09;101237.47;;;3.68;100.00
73860;BME280;62197;51.632;13.700;2024-03-07T03:09:35;101236.06;;;3.61;100.00
73860;BME280;62197;51.632;13.700;2024-03-07T03:12:05;101238.16;;;3.53;100.00
73860;BME280;62197;51.632;13.700;2024-03-07T03:14:30;101236.97;;;3.40;100.00
73860;BME280;62197;51.632;13.700;2024-03-07T03:16:55;101235.69;;;3.29;100.00
73860;BME280;62197;51.632;13.700;2024-03-07T03:19:21;101238.78;;;3.17;100.00
73860;BME280;62197;51.632;13.700;2024-03-07T03:21:48;101238.13;;;3.12;100.00
73860;BME280;62197;51.632;13.700;2024-03-07T03:24:13;101241.91;;;3.05;100.00
73860;BME280;62197;51.632;13.700;2024-03-07T03:26:40;101249.16;;;2.97;100.00
73860;BME280;62197;51.632;13.700;2024-03-07T03:29:07;101238.91;;;2.94;100.00
73860;BME280;62197;51.632;13.700;2024-03-07T03:31:34;101245.31;;;2.85;100.00
73860;BME280;62197;51.632;13.700;2024-03-07T03:34:00;101244.66;;;2.80;100.00
73860;BME280;62197;51.632;13.700;2024-03-07T03:36:26;101246.50;;;2.77;100.00
73860;BME280;62197;51.632;13.700;2024-03-07T03:38:51;101242.53;;;2.68;100.00
73860;BME280;62197;51.632;13.700;2024-03-07T03:41:16;101251.34;;;2.64;100.00
73860;BME280;62197;51.632;13.700;2024-03-07T03:43:42;101247.53;;;2.73;100.00
73860;BME280;62197;51.632;13.700;2024-03-07T03:46:10;101241.94;;;2.83;100.00
73860;BME280;62197;51.632;13.700;2024-03-07T03:48:36;101246.03;;;2.89;100.00
73860;BME280;62197;51.632;13.700;2024-03-07T03:51:02;101244.88;;;2.96;100.00
73860;BME280;62197;51.632;13.700;2024-03-07T03:53:28;101242.94;;;3.01;100.00
73860;BME280;62197;51.632;13.700;2024-03-07T03:55:53;101252.69;;;2.96;100.00
73860;BME280;62197;51.632;13.700;2024-03-07T03:58:18;101246.16;;;2.86;100.00
73860;BME280;62197;51.632;13.700;2024-03-07T04:00:43;101246.50;;;2.77;100.00
73860;BME280;62197;51.632;13.700;2024-03-07T04:03:09;101248.69;;;2.65;100.00
73860;BME280;62197;51.632;13.700;2024-03-07T04:05:34;101249.97;;;2.55;100.00
73860;BME280;62197;51.632;13.700;2024-03-07T04:07:59;101255.56;;;2.45;100.00
73860;BME280;62197;51.632;13.700;2024-03-07T04:10:25;101258.34;;;2.40;100.00
73860;BME280;62197;51.632;13.700;2024-03-07T04:12:50;101263.66;;;2.37;100.00
73860;BME280;62197;51.632;13.700;2024-03-07T04:15:16;101255.06;;;2.35;100.00
73860;BME280;62197;51.632;13.700;2024-03-07T04:17:42;101257.31;;;2.44;100.00
73860;BME280;62197;51.632;13.700;2024-03-07T04:20:07;101265.19;;;2.43;100.00
73860;BME280;62197;51.632;13.700;2024-03-07T04:22:36;101257.22;;;2.47;100.00
73860;BME280;62197;51.632;13.700;2024-03-07T04:25:04;101263.44;;;2.43;100.00
73860;BME280;62197;51.632;13.700;2024-03-07T04:27:31;101256.59;;;2.41;100.00
73860;BME280;62197;51.632;13.700;2024-03-07T04:29:57;101256.09;;;2.31;100.00
73860;BME280;62197;51.632;13.700;2024-03-07T04:32:23;101259.72;;;2.27;100.00
73860;BME280;62197;51.632;13.700;2024-03-07T04:34:48;101258.19;;;2.21;100.00
73860;BME280;62197;51.632;13.700;2024-03-07T04:37:14;101263.38;;;2.21;100.00
73860;BME280;62197;51.632;13.700;2024-03-07T04:39:39;101255.75;;;2.17;100.00
73860;BME280;62197;51.632;13.700;2024-03-07T04:42:06;101258.63;;;2.09;100.00
73860;BME280;62197;51.632;13.700;2024-03-07T04:44:33;101263.13;;;2.06;100.00
73860;BME280;62197;51.632;13.700;2024-03-07T04:47:00;101267.72;;;1.97;100.00
73860;BME280;62197;51.632;13.700;2024-03-07T04:49:28;101267.44;;;1.82;100.00
73860;BME280;62197;51.632;13.700;2024-03-07T04:51:56;101269.19;;;1.81;100.00
73860;BME280;62197;51.632;13.700;2024-03-07T04:54:22;101279.34;;;1.87;100.00
73860;BME280;62197;51.632;13.700;2024-03-07T04:56:50;101277.22;;;1.98;100.00
73860;BME280;62197;51.632;13.700;2024-03-07T04:59:16;101270.34;;;1.97;100.00
73860;BME280;62197;51.632;13.700;2024-03-07T05:01:43;101272.47;;;1.86;100.00
73860;BME280;62197;51.632;13.700;2024-03-07T05:04:09;101264.56;;;1.64;100.00
73860;BME280;62197;51.632;13.700;2024-03-07T05:06:34;101272.69;;;1.55;100.00
73860;BME280;62197;51.632;13.700;2024-03-07T05:09:04;101271.16;;;1.50;100.00
73860;BME280;62197;51.632;13.700;2024-03-07T05:11:30;101270.66;;;1.39;100.00
73860;BME280;62197;51.632;13.700;2024-03-07T05:13:56;101278.78;;;1.28;100.00
73860;BME280;62197;51.632;13.700;2024-03-07T05:16:23;101276.97;;;1.31;100.00
73860;BME280;62197;51.632;13.700;2024-03-07T05:18:48;101277.75;;;1.33;100.00
73860;BME280;62197;51.632;13.700;2024-03-07T05:21:15;101283.34;;;1.21;100.00
73860;BME280;62197;51.632;13.700;2024-03-07T05:24:13;101283.78;;;1.08;100.00
73860;BME280;62197;51.632;13.700;2024-03-07T05:26:40;101287.25;;;1.07;100.00
73860;BME280;62197;51.632;13.700;2024-03-07T05:29:07;101282.44;;;0.96;100.00
73860;BME280;62197;51.632;13.700;2024-03-07T05:31:38;101293.81;;;0.92;100.00
73860;BME280;62197;51.632;13.700;2024-03-07T05:34:04;101289.66;;;0.86;100.00
73860;BME280;62197;51.632;13.700;2024-03-07T05:36:33;101289.09;;;0.77;100.00
73860;BME280;62197;51.632;13.700;2024-03-07T05:38:59;101287.50;;;0.73;100.00
73860;BME280;62197;51.632;13.700;2024-03-07T05:41:33;101291.19;;;0.64;100.00
73860;BME280;62197;51.632;13.700;2024-03-07T05:43:59;101288.84;;;0.56;100.00
73860;BME280;62197;51.632;13.700;2024-03-07T05:46:25;101289.72;;;0.55;100.00
73860;BME280;62197;51.632;13.700;2024-03-07T05:48:50;101291.44;;;0.56;100.00
73860;BME280;62197;51.632;13.700;2024-03-07T05:51:18;101292.41;;;0.52;100.00
73860;BME280;62197;51.632;13.700;2024-03-07T05:53:43;101291.59;;;0.52;100.00
73860;BME280;62197;51.632;13.700;2024-03-07T05:56:08;101286.34;;;0.53;100.00
73860;BME280;62197;51.632;13.700;2024-03-07T05:58:34;101291.81;;;0.44;100.00
73860;BME280;62197;51.632;13.700;2024-03-07T06:01:00;101297.88;;;0.43;100.00
73860;BME280;62197;51.632;13.700;2024-03-07T06:03:25;101288.25;;;0.48;100.00
73860;BME280;62197;51.632;13.700;2024-03-07T06:05:51;101286.66;;;0.44;100.00
73860;BME280;62197;51.632;13.700;2024-03-07T06:08:19;101296.06;;;0.47;100.00
73860;BME280;62197;51.632;13.700;2024-03-07T06:10:45;101296.16;;;0.44;100.00
73860;BME280;62197;51.632;13.700;2024-03-07T06:13:12;101297.78;;;0.46;99.87
73860;BME280;62197;51.632;13.700;2024-03-07T06:15:38;101294.31;;;0.47;100.00
73860;BME280;62197;51.632;13.700;2024-03-07T06:18:04;101298.59;;;0.48;99.80
73860;BME280;62197;51.632;13.700;2024-03-07T06:20:30;101297.72;;;0.49;99.29
73860;BME280;62197;51.632;13.700;2024-03-07T06:22:55;101300.28;;;0.49;99.81
73860;BME280;62197;51.632;13.700;2024-03-07T06:25:22;101303.56;;;0.54;99.64
73860;BME280;62197;51.632;13.700;2024-03-07T06:28:06;101304.38;;;0.56;99.56
73860;BME280;62197;51.632;13.700;2024-03-07T06:30:36;101304.41;;;0.55;99.18
73860;BME280;62197;51.632;13.700;2024-03-07T06:33:02;101306.88;;;0.59;98.87
73860;BME280;62197;51.632;13.700;2024-03-07T06:35:27;101311.16;;;0.60;98.63
73860;BME280;62197;51.632;13.700;2024-03-07T06:37:52;101316.00;;;0.71;98.98
73860;BME280;62197;51.632;13.700;2024-03-07T06:40:18;101306.38;;;0.76;98.54
73860;BME280;62197;51.632;13.700;2024-03-07T06:42:46;101309.94;;;0.72;98.21
73860;BME280;62197;51.632;13.700;2024-03-07T06:45:12;101318.50;;;0.74;98.04
73860;BME280;62197;51.632;13.700;2024-03-07T06:47:37;101316.63;;;0.79;98.08
73860;BME280;62197;51.632;13.700;2024-03-07T06:50:03;101319.28;;;0.78;97.47
73860;BME280;62197;51.632;13.700;2024-03-07T06:52:28;101320.50;;;0.94;97.03
73860;BME280;62197;51.632;13.700;2024-03-07T06:54:54;101319.94;;;0.84;97.05
73860;BME280;62197;51.632;13.700;2024-03-07T06:57:19;101328.28;;;0.94;96.50
73860;BME280;62197;51.632;13.700;2024-03-07T06:59:44;101317.38;;;0.83;96.24
73860;BME280;62197;51.632;13.700;2024-03-07T07:02:09;101324.56;;;1.03;96.34
73860;BME280;62197;51.632;13.700;2024-03-07T07:04:35;101315.03;;;1.03;95.20
73860;BME280;62197;51.632;13.700;2024-03-07T07:07:09;101331.78;;;1.19;95.38
73860;BME280;62197;51.632;13.700;2024-03-07T07:09:38;101331.13;;;1.13;94.91
73860;BME280;62197;51.632;13.700;2024-03-07T07:12:03;101329.88;;;1.24;94.54
73860;BME280;62197;51.632;13.700;2024-03-07T07:14:29;101329.97;;;1.21;94.30
73860;BME280;62197;51.632;13.700;2024-03-07T07:16:54;101322.91;;;1.26;94.20
73860;BME280;62197;51.632;13.700;2024-03-07T07:19:21;101334.97;;;1.27;93.69
73860;BME280;62197;51.632;13.700;2024-03-07T07:21:46;101334.06;;;1.28;93.34
73860;BME280;62197;51.632;13.700;2024-03-07T07:24:12;101341.47;;;1.41;93.31
73860;BME280;62197;51.632;13.700;2024-03-07T07:26:38;101332.47;;;1.51;92.17
73860;BME280;62197;51.632;13.700;2024-03-07T07:29:04;101335.69;;;1.57;91.45
73860;BME280;62197;51.632;13.700;2024-03-07T07:31:30;101320.38;;;1.76;91.23
73860;BME280;62197;51.632;13.700;2024-03-07T07:33:57;101326.94;;;1.86;90.33
73860;BME280;62197;51.632;13.700;2024-03-07T07:36:23;101318.19;;;1.89;89.23
73860;BME280;62197;51.632;13.700;2024-03-07T07:38:48;101328.78;;;2.08;88.79
73860;BME280;62197;51.632;13.700;2024-03-07T07:41:13;101320.59;;;2.18;87.96
73860;BME280;62197;51.632;13.700;2024-03-07T07:43:40;101313.22;;;2.31;87.38
73860;BME280;62197;51.632;13.700;2024-03-07T07:46:06;101325.56;;;2.48;87.30
73860;BME280;62197;51.632;13.700;2024-03-07T07:48:31;101320.75;;;2.60;86.17
73860;BME280;62197;51.632;13.700;2024-03-07T07:50:56;101327.22;;;2.72;85.84
73860;BME280;62197;51.632;13.700;2024-03-07T07:53:21;101327.84;;;2.79;84.89
73860;BME280;62197;51.632;13.700;2024-03-07T07:55:47;101328.22;;;2.91;84.52
73860;BME280;62197;51.632;13.700;2024-03-07T07:58:14;101326.78;;;3.06;82.16
73860;BME280;62197;51.632;13.700;2024-03-07T08:00:39;101325.69;;;2.90;82.55
73860;BME280;62197;51.632;13.700;2024-03-07T08:03:05;101326.13;;;3.21;82.02
73860;BME280;62197;51.632;13.700;2024-03-07T08:05:35;101327.94;;;3.41;81.14
73860;BME280;62197;51.632;13.700;2024-03-07T08:08:08;101322.38;;;3.50;80.50
73860;BME280;62197;51.632;13.700;2024-03-07T08:10:37;101328.66;;;3.45;80.83
73860;BME280;62197;51.632;13.700;2024-03-07T08:13:04;101326.97;;;3.64;80.50
73860;BME280;62197;51.632;13.700;2024-03-07T08:15:31;101331.91;;;3.50;80.52
73860;BME280;62197;51.632;13.700;2024-03-07T08:17:57;101330.03;;;3.74;80.08
73860;BME280;62197;51.632;13.700;2024-03-07T08:20:23;101326.72;;;3.90;79.81
73860;BME280;62197;51.632;13.700;2024-03-07T08:22:51;101339.78;;;4.09;78.94
73860;BME280;62197;51.632;13.700;2024-03-07T08:25:20;101326.06;;;4.24;77.29
73860;BME280;62197;51.632;13.700;2024-03-07T08:27:47;101331.66;;;4.36;76.93
73860;BME280;62197;51.632;13.700;2024-03-07T08:30:13;101324.28;;;4.45;76.62
73860;BME280;62197;51.632;13.700;2024-03-07T08:35:06;101323.66;;;5.83;71.98
73860;BME280;62197;51.632;13.700;2024-03-07T08:37:35;101330.47;;;6.20;73.55
73860;BME280;62197;51.632;13.700;2024-03-07T08:40:01;101321.59;;;6.07;69.57
73860;BME280;62197;51.632;13.700;2024-03-07T08:42:29;101327.34;;;5.44;69.45
73860;BME280;62197;51.632;13.700;2024-03-07T08:44:56;101324.50;;;5.83;72.87
73860;BME280;62197;51.632;13.700;2024-03-07T08:47:22;101321.91;;;7.12;67.82
73860;BME280;62197;51.632;13.700;2024-03-07T08:49:47;101332.38;;;5.66;67.04
73860;BME280;62197;51.632;13.700;2024-03-07T08:52:12;101333.25;;;5.13;67.76
73860;BME280;62197;51.632;13.700;2024-03-07T08:54:37;101332.03;;;5.38;67.50
73860;BME280;62197;51.632;13.700;2024-03-07T08:57:03;101336.94;;;5.44;67.44
73860;BME280;62197;51.632;13.700;2024-03-07T08:59:32;101336.56;;;5.51;66.83
73860;BME280;62197;51.632;13.700;2024-03-07T09:01:58;101337.88;;;6.12;65.47
73860;BME280;62197;51.632;13.700;2024-03-07T09:04:24;101339.09;;;6.05;64.26
73860;BME280;62197;51.632;13.700;2024-03-07T09:06:50;101335.50;;;5.90;64.80
73860;BME280;62197;51.632;13.700;2024-03-07T09:09:15;101333.72;;;5.73;66.07
73860;BME280;62197;51.632;13.700;2024-03-07T09:11:43;101336.47;;;6.38;63.53
73860;BME280;62197;51.632;13.700;2024-03-07T09:14:08;101338.03;;;6.09;63.31
73860;BME280;62197;51.632;13.700;2024-03-07T09:16:34;101334.25;;;5.80;65.12
73860;BME280;62197;51.632;13.700;2024-03-07T09:19:00;101333.56;;;5.42;65.12
73860;BME280;62197;51.632;13.700;2024-03-07T09:21:25;101332.03;;;6.40;62.77
73860;BME280;62197;51.632;13.700;2024-03-07T09:23:50;101334.41;;;6.11;66.09
73860;BME280;62197;51.632;13.700;2024-03-07T09:26:16;101324.69;;;6.46;61.71
73860;BME280;62197;51.632;13.700;2024-03-07T09:28:41;101328.94;;;6.64;62.35
73860;BME280;62197;51.632;13.700;2024-03-07T09:31:06;101332.03;;;6.40;61.75
73860;BME280;62197;51.632;13.700;2024-03-07T09:33:31;101332.97;;;6.54;63.23
73860;BME280;62197;51.632;13.700;2024-03-07T09:35:57;101320.81;;;7.16;62.88
73860;BME280;62197;51.632;13.700;2024-03-07T09:38:23;101335.34;;;6.59;61.55
73860;BME280;62197;51.632;13.700;2024-03-07T09:40:48;101327.75;;;6.54;60.91
73860;BME280;62197;51.632;13.700;2024-03-07T09:43:15;101331.38;;;6.83;62.47
73860;BME280;62197;51.632;13.700;2024-03-07T09:45:42;101332.47;;;6.48;62.69
73860;BME280;62197;51.632;13.700;2024-03-07T09:48:08;101332.13;;;6.54;62.30
73860;BME280;62197;51.632;13.700;2024-03-07T09:50:35;101326.97;;;6.52;61.90
73860;BME280;62197;51.632;13.700;2024-03-07T09:53:02;101328.09;;;6.15;62.13
73860;BME280;62197;51.632;13.700;2024-03-07T09:55:29;101326.81;;;6.55;61.75
73860;BME280;62197;51.632;13.700;2024-03-07T09:57:55;101330.78;;;6.62;61.59
73860;BME280;62197;51.632;13.700;2024-03-07T10:00:23;101323.66;;;6.17;64.70
73860;BME280;62197;51.632;13.700;2024-03-07T10:02:54;101318.00;;;6.25;61.25
73860;BME280;62197;51.632;13.700;2024-03-07T10:05:20;101319.97;;;6.21;62.84
73860;BME280;62197;51.632;13.700;2024-03-07T10:07:47;101321.25;;;6.46;59.40
73860;BME280;62197;51.632;13.700;2024-03-07T10:10:12;101320.31;;;6.47;59.57
73860;BME280;62197;51.632;13.700;2024-03-07T10:12:38;101310.47;;;6.52;58.74
73860;BME280;62197;51.632;13.700;2024-03-07T10:15:04;101318.47;;;6.80;59.93
73860;BME280;62197;51.632;13.700;2024-03-07T10:17:38;101319.84;;;6.72;57.94
73860;BME280;62197;51.632;13.700;2024-03-07T10:20:04;101321.25;;;7.09;57.21
73860;BME280;62197;51.632;13.700;2024-03-07T10:22:35;101311.03;;;7.20;56.98
73860;BME280;62197;51.632;13.700;2024-03-07T10:25:01;101311.59;;;7.55;57.33
73860;BME280;62197;51.632;13.700;2024-03-07T10:27:28;101310.03;;;6.91;55.58
73860;BME280;62197;51.632;13.700;2024-03-07T10:29:54;101315.09;;;7.10;56.36
73860;BME280;62197;51.632;13.700;2024-03-07T10:32:21;101306.91;;;7.16;56.26
73860;BME280;62197;51.632;13.700;2024-03-07T10:34:48;101309.00;;;7.09;54.02
73860;BME280;62197;51.632;13.700;2024-03-07T10:37:15;101307.41;;;7.37;53.61
73860;BME280;62197;51.632;13.700;2024-03-07T10:39:43;101306.72;;;8.21;51.18
73860;BME280;62197;51.632;13.700;2024-03-07T10:42:13;101302.97;;;8.11;49.53
73860;BME280;62197;51.632;13.700;2024-03-07T10:44:43;101298.63;;;8.94;48.70
73860;BME280;62197;51.632;13.700;2024-03-07T10:47:14;101297.91;;;8.92;48.40
73860;BME280;62197;51.632;13.700;2024-03-07T10:49:48;101299.69;;;9.18;45.97
73860;BME280;62197;51.632;13.700;2024-03-07T10:52:28;101298.00;;;9.17;46.35
73860;BME280;62197;51.632;13.700;2024-03-07T10:55:08;101288.88;;;9.23;46.57
73860;BME280;62197;51.632;13.700;2024-03-07T10:57:51;101279.94;;;9.78;44.94
73860;BME280;62197;51.632;13.700;2024-03-07T11:00:22;101290.31;;;8.87;46.94
73860;BME280;62197;51.632;13.700;2024-03-07T11:02:55;101281.44;;;7.92;48.42
73860;BME280;62197;51.632;13.700;2024-03-07T11:05:21;101286.44;;;7.52;48.19
73860;BME280;62197;51.632;13.700;2024-03-07T11:07:50;101286.91;;;7.59;48.75
73860;BME280;62197;51.632;13.700;2024-03-07T11:10:18;101284.44;;;7.72;48.19
73860;BME280;62197;51.632;13.700;2024-03-07T11:12:44;101280.19;;;7.55;47.56
73860;BME280;62197;51.632;13.700;2024-03-07T11:15:11;101276.94;;;8.51;49.56
73860;BME280;62197;51.632;13.700;2024-03-07T11:17:42;101275.88;;;8.68;45.94
73860;BME280;62197;51.632;13.700;2024-03-07T11:20:24;101275.88;;;8.94;45.45
73860;BME280;62197;51.632;13.700;2024-03-07T11:22:51;101264.34;;;8.70;46.26
73860;BME280;62197;51.632;13.700;2024-03-07T11:25:19;101268.25;;;9.69;44.15
73860;BME280;62197;51.632;13.700;2024-03-07T11:27:53;101266.34;;;9.96;42.82
73860;BME280;62197;51.632;13.700;2024-03-07T11:30:21;101267.41;;;10.07;41.45
73860;BME280;62197;51.632;13.700;2024-03-07T11:32:47;101267.31;;;10.21;42.87
73860;BME280;62197;51.632;13.700;2024-03-07T11:35:14;101261.47;;;11.37;39.72
73860;BME280;62197;51.632;13.700;2024-03-07T11:37:41;101258.44;;;10.71;41.20
73860;BME280;62197;51.632;13.700;2024-03-07T11:42:53;101252.66;;;9.41;42.80
73860;BME280;62197;51.632;13.700;2024-03-07T11:45:20;101255.53;;;8.16;45.35
73860;BME280;62197;51.632;13.700;2024-03-07T11:47:52;101259.16;;;8.27;45.70
73860;BME280;62197;51.632;13.700;2024-03-07T11:50:38;101251.22;;;8.01;45.91
73860;BME280;62197;51.632;13.700;2024-03-07T11:53:05;101253.44;;;8.35;45.82
73860;BME280;62197;51.632;13.700;2024-03-07T11:55:31;101243.53;;;7.97;46.99
73860;BME280;62197;51.632;13.700;2024-03-07T11:58:20;101248.03;;;7.67;47.42
73860;BME280;62197;51.632;13.700;2024-03-07T12:00:49;101249.81;;;7.95;47.95
73860;BME280;62197;51.632;13.700;2024-03-07T12:03:20;101237.94;;;8.18;46.73
73860;BME280;62197;51.632;13.700;2024-03-07T12:05:50;101242.66;;;8.54;47.05
73860;BME280;62197;51.632;13.700;2024-03-07T12:08:17;101233.97;;;10.09;43.89
73860;BME280;62197;51.632;13.700;2024-03-07T12:10:44;101235.66;;;11.64;40.28
73860;BME280;62197;51.632;13.700;2024-03-07T12:13:10;101232.00;;;11.32;41.91
73860;BME280;62197;51.632;13.700;2024-03-07T12:15:41;101222.31;;;11.32;39.48
73860;BME280;62197;51.632;13.700;2024-03-07T12:18:08;101223.47;;;12.73;36.44
73860;BME280;62197;51.632;13.700;2024-03-07T12:20:37;101216.19;;;13.30;35.38
73860;BME280;62197;51.632;13.700;2024-03-07T12:23:04;101215.66;;;13.87;33.80
73860;BME280;62197;51.632;13.700;2024-03-07T12:25:34;101214.66;;;13.57;34.14
73860;BME280;62197;51.632;13.700;2024-03-07T12:28:06;101212.78;;;13.69;33.25
73860;BME280;62197;51.632;13.700;2024-03-07T12:33:10;101207.38;;;13.08;35.17
73860;BME280;62197;51.632;13.700;2024-03-07T12:35:36;101203.81;;;13.81;33.09
73860;BME280;62197;51.632;13.700;2024-03-07T12:38:02;101194.19;;;14.99;31.18
73860;BME280;62197;51.632;13.700;2024-03-07T12:40:28;101195.28;;;14.18;31.47
73860;BME280;62197;51.632;13.700;2024-03-07T12:42:59;101200.22;;;14.32;32.47
73860;BME280;62197;51.632;13.700;2024-03-07T12:45:27;101189.28;;;15.70;30.11
73860;BME280;62197;51.632;13.700;2024-03-07T12:47:53;101184.91;;;15.32;29.60
73860;BME280;62197;51.632;13.700;2024-03-07T12:50:20;101191.78;;;14.57;31.01
73860;BME280;62197;51.632;13.700;2024-03-07T12:52:46;101187.78;;;12.58;35.00